sensor_id;sensor_type;location;lat;lon;timestamp;temperature;humidity
45765;DHT22;31474;45.332;10.230;2023-01-15T00:00:18;6.20;99.90
45765;DHT22;31474;45.332;10.230;2023-01-15T00:02:44;6.20;99.90
45765;DHT22;31474;45.332;10.230;2023-01-15T00:05:10;6.20;99.90
45765;DHT22;31474;45.332;10.230;2023-01-15T00:07:35;6.20;99.90
45765;DHT22;31474;45.332;10.230;2023-01-15T00:10:01;6.20;99.90
45765;DHT22;31474;45.332;10.230;2023-01-15T00:12:26;6.30;99.90
45765;DHT22;31474;45.332;10.230;2023-01-15T00:14:52;6.30;99.90
45765;DHT22;31474;45.332;10.230;2023-01-15T00:17:18;6.30;99.90
45765;DHT22;31474;45.332;10.230;2023-01-15T00:19:43;6.30;99.90
45765;DHT22;31474;45.332;10.230;2023-01-15T00:22:09;6.30;99.90
45765;DHT22;31474;45.332;10.230;2023-01-15T00:24:34;6.30;99.90
45765;DHT22;31474;45.332;10.230;2023-01-15T00:27:18;6.30;99.90
45765;DHT22;31474;45.332;10.230;2023-01-15T00:30:03;6.30;99.90
45765;DHT22;31474;45.332;10.230;2023-01-15T00:32:29;6.20;99.90
45765;DHT22;31474;45.332;10.230;2023-01-15T00:34:56;6.20;99.90
45765;DHT22;31474;45.332;10.230;2023-01-15T00:37:22;6.30;99.90
45765;DHT22;31474;45.332;10.230;2023-01-15T00:39:48;6.30;99.90
45765;DHT22;31474;45.332;10.230;2023-01-15T00:42:13;6.30;99.90
45765;DHT22;31474;45.332;10.230;2023-01-15T00:44:40;6.40;99.90
45765;DHT22;31474;45.332;10.230;2023-01-15T00:47:06;6.40;99.90
45765;DHT22;31474;45.332;10.230;2023-01-15T00:49:33;6.40;99.90
45765;DHT22;31474;45.332;10.230;2023-01-15T00:51:59;6.40;99.90
45765;DHT22;31474;45.332;10.230;2023-01-15T00:54:24;6.40;99.90
45765;DHT22;31474;45.332;10.230;2023-01-15T00:56:50;6.30;99.90
45765;DHT22;31474;45.332;10.230;2023-01-15T00:59:15;6.30;99.90
45765;DHT22;31474;45.332;10.230;2023-01-15T01:01:41;6.30;99.90
45765;DHT22;31474;45.332;10.230;2023-01-15T01:04:07;6.30;99.90
45765;DHT22;31474;45.332;10.230;2023-01-15T01:06:32;6.30;99.90
45765;DHT22;31474;45.332;10.230;2023-01-15T01:08:58;6.30;99.90
45765;DHT22;31474;45.332;10.230;2023-01-15T01:11:24;6.30;99.90
45765;DHT22;31474;45.332;10.230;2023-01-15T01:13:52;6.30;99.90
45765;DHT22;31474;45.332;10.230;2023-01-15T01:18:49;6.30;99.90
45765;DHT22;31474;45.332;10.230;2023-01-15T01:21:16;6.30;99.90
45765;DHT22;31474;45.332;10.230;2023-01-15T01:23:41;6.30;99.90
45765;DHT22;31474;45.332;10.230;2023-01-15T01:26:07;6.30;99.90
45765;DHT22;31474;45.332;10.230;2023-01-15T01:28:34;6.30;99.90
45765;DHT22;31474;45.332;10.230;2023-01-15T01:31:02;6.30;99.90
45765;DHT22;31474;45.332;10.230;2023-01-15T01:33:28;6.30;99.90
45765;DHT22;31474;45.332;10.230;2023-01-15T01:35:54;6.30;99.90
45765;DHT22;31474;45.332;10.230;2023-01-15T01:38:19;6.40;99.90
45765;DHT22;31474;45.332;10.230;2023-01-15T01:40:45;6.40;99.90
45765;DHT22;31474;45.332;10.230;2023-01-15T01:43:19;6.40;99.90
45765;DHT22;31474;45.332;10.230;2023-01-15T01:45:45;6.50;99.90
45765;DHT22;31474;45.332;10.230;2023-01-15T01:48:11;6.50;99.90
45765;DHT22;31474;45.332;10.230;2023-01-15T01:50:38;6.50;99.90
45765;DHT22;31474;45.332;10.230;2023-01-15T01:53:11;6.50;99.90
45765;DHT22;31474;45.332;10.230;2023-01-15T01:55:39;6.60;99.90
45765;DHT22;31474;45.332;10.230;2023-01-15T01:58:07;6.60;99.90
45765;DHT22;31474;45.332;10.230;2023-01-15T02:00:35;6.60;99.90
45765;DHT22;31474;45.332;10.230;2023-01-15T02:03:01;6.60;99.90
45765;DHT22;31474;45.332;10.230;2023-01-15T02:05:30;6.60;99.90
45765;DHT22;31474;45.332;10.230;2023-01-15T02:07:56;6.60;99.90
45765;DHT22;31474;45.332;10.230;2023-01-15T02:10:22;6.70;99.90
45765;DHT22;31474;45.332;10.230;2023-01-15T02:15:41;6.60;99.90
45765;DHT22;31474;45.332;10.230;2023-01-15T02:18:19;6.60;99.90
45765;DHT22;31474;45.332;10.230;2023-01-15T02:20:55;6.60;99.90
45765;DHT22;31474;45.332;10.230;2023-01-15T02:28:55;6.70;99.90
45765;DHT22;31474;45.332;10.230;2023-01-15T02:31:36;6.60;99.90
45765;DHT22;31474;45.332;10.230;2023-01-15T02:34:27;6.60;99.90
45765;DHT22;31474;45.332;10.230;2023-01-15T02:37:01;6.70;99.90
45765;DHT22;31474;45.332;10.230;2023-01-15T02:39:29;6.60;99.90
45765;DHT22;31474;45.332;10.230;2023-01-15T02:41:59;6.70;99.90
45765;DHT22;31474;45.332;10.230;2023-01-15T02:44:28;6.70;99.90
45765;DHT22;31474;45.332;10.230;2023-01-15T02:46:57;6.60;99.90
45765;DHT22;31474;45.332;10.230;2023-01-15T02:49:24;6.70;99.90
45765;DHT22;31474;45.332;10.230;2023-01-15T02:54:20;6.70;99.90
45765;DHT22;31474;45.332;10.230;2023-01-15T02:56:48;6.70;99.90
45765;DHT22;31474;45.332;10.230;2023-01-15T02:59:21;6.70;99.90
45765;DHT22;31474;45.332;10.230;2023-01-15T03:01:59;6.70;99.90
45765;DHT22;31474;45.332;10.230;2023-01-15T03:09:30;6.70;99.90
45765;DHT22;31474;45.332;10.230;2023-01-15T03:12:28;6.70;99.90
45765;DHT22;31474;45.332;10.230;2023-01-15T03:15:08;6.70;99.90
45765;DHT22;31474;45.332;10.230;2023-01-15T03:17:42;6.70;99.90
45765;DHT22;31474;45.332;10.230;2023-01-15T03:20:16;6.80;99.90
45765;DHT22;31474;45.332;10.230;2023-01-15T03:22:48;6.80;99.90
45765;DHT22;31474;45.332;10.230;2023-01-15T03:25:20;6.80;99.90
45765;DHT22;31474;45.332;10.230;2023-01-15T03:27:49;6.80;99.90
45765;DHT22;31474;45.332;10.230;2023-01-15T03:30:19;6.80;99.90
45765;DHT22;31474;45.332;10.230;2023-01-15T03:32:46;6.80;99.90
45765;DHT22;31474;45.332;10.230;2023-01-15T03:36:03;6.80;99.90
45765;DHT22;31474;45.332;10.230;2023-01-15T03:38:32;6.70;99.90
45765;DHT22;31474;45.332;10.230;2023-01-15T03:47:03;6.70;99.90
45765;DHT22;31474;45.332;10.230;2023-01-15T03:49:43;6.80;99.90
45765;DHT22;31474;45.332;10.230;2023-01-15T03:52:21;6.70;99.90
45765;DHT22;31474;45.332;10.230;2023-01-15T03:54:59;6.80;99.90
45765;DHT22;31474;45.332;10.230;2023-01-15T03:57:40;6.70;99.90
45765;DHT22;31474;45.332;10.230;2023-01-15T04:00:26;6.80;99.90
45765;DHT22;31474;45.332;10.230;2023-01-15T04:02:54;6.80;99.90
45765;DHT22;31474;45.332;10.230;2023-01-15T04:05:21;6.80;99.90
45765;DHT22;31474;45.332;10.230;2023-01-15T04:08:11;6.80;99.90
45765;DHT22;31474;45.332;10.230;2023-01-15T04:10:55;6.80;99.90
45765;DHT22;31474;45.332;10.230;2023-01-15T04:13:21;6.80;99.90
45765;DHT22;31474;45.332;10.230;2023-01-15T04:15:47;6.80;99.90
45765;DHT22;31474;45.332;10.230;2023-01-15T04:18:13;6.90;99.90
45765;DHT22;31474;45.332;10.230;2023-01-15T04:20:38;6.80;99.90
45765;DHT22;31474;45.332;10.230;2023-01-15T04:23:04;6.90;99.90
45765;DHT22;31474;45.332;10.230;2023-01-15T04:25:30;6.80;99.90
45765;DHT22;31474;45.332;10.230;2023-01-15T04:27:55;6.90;99.90
45765;DHT22;31474;45.332;10.230;2023-01-15T04:30:21;6.90;99.90
45765;DHT22;31474;45.332;10.230;2023-01-15T04:32:48;6.90;99.90
45765;DHT22;31474;45.332;10.230;2023-01-15T04:35:14;6.90;99.90
45765;DHT22;31474;45.332;10.230;2023-01-15T04:37:40;6.90;99.90
45765;DHT22;31474;45.332;10.230;2023-01-15T04:40:06;7.00;99.90
45765;DHT22;31474;45.332;10.230;2023-01-15T04:42:32;7.00;99.90
45765;DHT22;31474;45.332;10.230;2023-01-15T04:45:16;7.00;99.90
45765;DHT22;31474;45.332;10.230;2023-01-15T04:47:42;7.00;99.90
45765;DHT22;31474;45.332;10.230;2023-01-15T04:50:08;7.00;99.90
45765;DHT22;31474;45.332;10.230;2023-01-15T04:52:35;7.00;99.90
45765;DHT22;31474;45.332;10.230;2023-01-15T04:55:01;7.10;99.90
45765;DHT22;31474;45.332;10.230;2023-01-15T04:57:26;7.00;99.90
45765;DHT22;31474;45.332;10.230;2023-01-15T04:59:52;7.10;99.90
45765;DHT22;31474;45.332;10.230;2023-01-15T05:02:17;7.00;99.90
45765;DHT22;31474;45.332;10.230;2023-01-15T05:04:43;7.10;99.90
45765;DHT22;31474;45.332;10.230;2023-01-15T05:07:09;7.10;99.90
45765;DHT22;31474;45.332;10.230;2023-01-15T05:09:35;7.10;99.90
45765;DHT22;31474;45.332;10.230;2023-01-15T05:12:01;7.10;99.90
45765;DHT22;31474;45.332;10.230;2023-01-15T05:14:27;7.10;99.90
45765;DHT22;31474;45.332;10.230;2023-01-15T05:16:52;7.10;99.90
45765;DHT22;31474;45.332;10.230;2023-01-15T05:19:18;7.00;99.90
45765;DHT22;31474;45.332;10.230;2023-01-15T05:21:44;7.00;99.90
45765;DHT22;31474;45.332;10.230;2023-01-15T05:24:14;7.00;99.90
45765;DHT22;31474;45.332;10.230;2023-01-15T05:26:40;7.00;99.90
45765;DHT22;31474;45.332;10.230;2023-01-15T05:29:06;7.00;99.90
45765;DHT22;31474;45.332;10.230;2023-01-15T05:31:32;6.90;99.90
45765;DHT22;31474;45.332;10.230;2023-01-15T05:34:00;6.90;99.90
45765;DHT22;31474;45.332;10.230;2023-01-15T05:36:28;6.90;99.90
45765;DHT22;31474;45.332;10.230;2023-01-15T05:38:55;6.90;99.90
45765;DHT22;31474;45.332;10.230;2023-01-15T05:41:24;6.90;99.90
45765;DHT22;31474;45.332;10.230;2023-01-15T05:44:10;6.90;99.90
45765;DHT22;31474;45.332;10.230;2023-01-15T05:46:37;7.00;99.90
45765;DHT22;31474;45.332;10.230;2023-01-15T05:49:06;7.00;99.90
45765;DHT22;31474;45.332;10.230;2023-01-15T05:51:36;7.00;99.90
45765;DHT22;31474;45.332;10.230;2023-01-15T05:54:03;7.00;99.90
45765;DHT22;31474;45.332;10.230;2023-01-15T05:56:29;7.00;99.90
45765;DHT22;31474;45.332;10.230;2023-01-15T05:58:54;7.00;99.90
45765;DHT22;31474;45.332;10.230;2023-01-15T06:01:21;7.00;99.90
45765;DHT22;31474;45.332;10.230;2023-01-15T06:03:47;7.00;99.90
45765;DHT22;31474;45.332;10.230;2023-01-15T06:06:15;7.00;99.90
45765;DHT22;31474;45.332;10.230;2023-01-15T06:08:41;7.00;99.90
45765;DHT22;31474;45.332;10.230;2023-01-15T06:11:07;7.00;99.90
45765;DHT22;31474;45.332;10.230;2023-01-15T06:13:33;7.10;99.90
45765;DHT22;31474;45.332;10.230;2023-01-15T06:16:00;7.00;99.90
45765;DHT22;31474;45.332;10.230;2023-01-15T06:18:26;7.00;99.90
45765;DHT22;31474;45.332;10.230;2023-01-15T06:20:52;7.00;99.90
45765;DHT22;31474;45.332;10.230;2023-01-15T06:23:18;7.00;99.90
45765;DHT22;31474;45.332;10.230;2023-01-15T06:25:44;6.90;99.90
45765;DHT22;31474;45.332;10.230;2023-01-15T06:28:10;6.90;99.90
45765;DHT22;31474;45.332;10.230;2023-01-15T06:30:37;6.80;99.90
45765;DHT22;31474;45.332;10.230;2023-01-15T06:33:03;6.80;99.90
45765;DHT22;31474;45.332;10.230;2023-01-15T06:35:29;6.90;99.90
45765;DHT22;31474;45.332;10.230;2023-01-15T06:37:55;6.90;99.90
45765;DHT22;31474;45.332;10.230;2023-01-15T06:40:20;7.00;99.90
45765;DHT22;31474;45.332;10.230;2023-01-15T06:42:48;6.90;99.90
45765;DHT22;31474;45.332;10.230;2023-01-15T06:45:37;6.80;99.90
45765;DHT22;31474;45.332;10.230;2023-01-15T06:48:26;6.90;99.90
45765;DHT22;31474;45.332;10.230;2023-01-15T06:50:52;6.80;99.90
45765;DHT22;31474;45.332;10.230;2023-01-15T06:53:19;6.90;99.90
45765;DHT22;31474;45.332;10.230;2023-01-15T06:55:45;6.90;99.90
45765;DHT22;31474;45.332;10.230;2023-01-15T06:58:11;6.90;99.90
45765;DHT22;31474;45.332;10.230;2023-01-15T07:00:37;6.90;99.90
45765;DHT22;31474;45.332;10.230;2023-01-15T07:03:03;6.90;99.90
45765;DHT22;31474;45.332;10.230;2023-01-15T07:05:29;6.90;99.90
45765;DHT22;31474;45.332;10.230;2023-01-15T07:07:57;6.90;99.90
45765;DHT22;31474;45.332;10.230;2023-01-15T07:10:23;6.90;99.90
45765;DHT22;31474;45.332;10.230;2023-01-15T07:12:49;6.90;99.90
45765;DHT22;31474;45.332;10.230;2023-01-15T07:15:15;6.90;99.90
45765;DHT22;31474;45.332;10.230;2023-01-15T07:17:40;6.90;99.90
45765;DHT22;31474;45.332;10.230;2023-01-15T07:20:07;6.90;99.90
45765;DHT22;31474;45.332;10.230;2023-01-15T07:22:32;6.90;99.90
45765;DHT22;31474;45.332;10.230;2023-01-15T07:24:58;6.90;99.90
45765;DHT22;31474;45.332;10.230;2023-01-15T07:27:23;6.90;99.90
45765;DHT22;31474;45.332;10.230;2023-01-15T07:29:49;6.90;99.90
45765;DHT22;31474;45.332;10.230;2023-01-15T07:32:16;6.80;99.90
45765;DHT22;31474;45.332;10.230;2023-01-15T07:34:42;6.80;99.90
45765;DHT22;31474;45.332;10.230;2023-01-15T07:37:08;6.70;99.90
45765;DHT22;31474;45.332;10.230;2023-01-15T07:39:33;6.80;99.90
45765;DHT22;31474;45.332;10.230;2023-01-15T07:41:59;6.80;99.90
45765;DHT22;31474;45.332;10.230;2023-01-15T07:44:43;6.80;99.90
45765;DHT22;31474;45.332;10.230;2023-01-15T07:47:28;6.80;99.90
45765;DHT22;31474;45.332;10.230;2023-01-15T07:50:18;6.90;99.90
45765;DHT22;31474;45.332;10.230;2023-01-15T07:52:44;6.90;99.90
45765;DHT22;31474;45.332;10.230;2023-01-15T07:55:10;6.90;99.90
45765;DHT22;31474;45.332;10.230;2023-01-15T07:57:37;6.90;99.90
45765;DHT22;31474;45.332;10.230;2023-01-15T08:00:13;7.00;99.90
45765;DHT22;31474;45.332;10.230;2023-01-15T08:02:39;7.00;99.90
45765;DHT22;31474;45.332;10.230;2023-01-15T08:05:06;7.00;99.90
45765;DHT22;31474;45.332;10.230;2023-01-15T08:07:39;7.10;99.90
45765;DHT22;31474;45.332;10.230;2023-01-15T08:10:05;7.00;99.90
45765;DHT22;31474;45.332;10.230;2023-01-15T08:12:31;7.00;99.90
45765;DHT22;31474;45.332;10.230;2023-01-15T08:15:36;7.00;99.90
45765;DHT22;31474;45.332;10.230;2023-01-15T08:18:03;7.00;99.90
45765;DHT22;31474;45.332;10.230;2023-01-15T08:20:29;7.00;99.90
45765;DHT22;31474;45.332;10.230;2023-01-15T08:22:55;7.10;99.90
45765;DHT22;31474;45.332;10.230;2023-01-15T08:25:23;7.10;99.90
45765;DHT22;31474;45.332;10.230;2023-01-15T08:27:49;7.10;99.90
45765;DHT22;31474;45.332;10.230;2023-01-15T08:30:19;7.10;99.90
45765;DHT22;31474;45.332;10.230;2023-01-15T08:32:46;7.10;99.90
45765;DHT22;31474;45.332;10.230;2023-01-15T08:35:11;7.20;99.90
45765;DHT22;31474;45.332;10.230;2023-01-15T08:37:38;7.20;99.90
45765;DHT22;31474;45.332;10.230;2023-01-15T08:40:04;7.20;99.90
45765;DHT22;31474;45.332;10.230;2023-01-15T08:42:30;7.20;99.90
45765;DHT22;31474;45.332;10.230;2023-01-15T08:44:56;7.20;99.90
45765;DHT22;31474;45.332;10.230;2023-01-15T08:47:21;7.30;99.90
45765;DHT22;31474;45.332;10.230;2023-01-15T08:49:47;7.20;99.90
45765;DHT22;31474;45.332;10.230;2023-01-15T08:52:14;7.20;99.90
45765;DHT22;31474;45.332;10.230;2023-01-15T08:54:39;7.20;99.90
45765;DHT22;31474;45.332;10.230;2023-01-15T08:57:05;7.20;99.90
45765;DHT22;31474;45.332;10.230;2023-01-15T08:59:33;7.30;99.90
45765;DHT22;31474;45.332;10.230;2023-01-15T09:01:59;7.30;99.90
45765;DHT22;31474;45.332;10.230;2023-01-15T09:04:25;7.30;99.90
45765;DHT22;31474;45.332;10.230;2023-01-15T09:06:51;7.40;99.90
45765;DHT22;31474;45.332;10.230;2023-01-15T09:09:17;7.40;99.90
45765;DHT22;31474;45.332;10.230;2023-01-15T09:11:43;7.40;99.90
45765;DHT22;31474;45.332;10.230;2023-01-15T09:14:10;7.40;99.90
45765;DHT22;31474;45.332;10.230;2023-01-15T09:16:37;7.50;99.90
45765;DHT22;31474;45.332;10.230;2023-01-15T09:19:05;7.50;99.90
45765;DHT22;31474;45.332;10.230;2023-01-15T09:21:31;7.40;99.90
45765;DHT22;31474;45.332;10.230;2023-01-15T09:23:57;7.40;99.90
45765;DHT22;31474;45.332;10.230;2023-01-15T09:28:52;7.50;99.90
45765;DHT22;31474;45.332;10.230;2023-01-15T09:31:17;7.50;99.90
45765;DHT22;31474;45.332;10.230;2023-01-15T09:33:43;7.50;99.90
45765;DHT22;31474;45.332;10.230;2023-01-15T09:36:48;7.50;99.90
45765;DHT22;31474;45.332;10.230;2023-01-15T09:39:07;7.50;99.90
45765;DHT22;31474;45.332;10.230;2023-01-15T09:42:22;7.40;99.90
45765;DHT22;31474;45.332;10.230;2023-01-15T09:48:28;7.50;99.90
45765;DHT22;31474;45.332;10.230;2023-01-15T09:50:39;7.50;99.90
45765;DHT22;31474;45.332;10.230;2023-01-15T09:55:41;7.50;99.90
45765;DHT22;31474;45.332;10.230;2023-01-15T09:58:09;7.50;99.90
45765;DHT22;31474;45.332;10.230;2023-01-15T10:00:39;7.50;99.90
45765;DHT22;31474;45.332;10.230;2023-01-15T10:06:09;7.50;99.90
45765;DHT22;31474;45.332;10.230;2023-01-15T10:08:39;7.50;99.90
45765;DHT22;31474;45.332;10.230;2023-01-15T10:13:48;7.60;99.90
45765;DHT22;31474;45.332;10.230;2023-01-15T10:16:28;7.60;99.90
45765;DHT22;31474;45.332;10.230;2023-01-15T10:18:56;7.60;99.90
45765;DHT22;31474;45.332;10.230;2023-01-15T10:24:01;7.60;99.90
45765;DHT22;31474;45.332;10.230;2023-01-15T10:29:01;7.60;99.90
45765;DHT22;31474;45.332;10.230;2023-01-15T10:31:50;7.60;99.90
45765;DHT22;31474;45.332;10.230;2023-01-15T10:46:13;7.60;99.90
45765;DHT22;31474;45.332;10.230;2023-01-15T10:48:43;7.60;99.90
45765;DHT22;31474;45.332;10.230;2023-01-15T10:51:33;7.70;99.90
45765;DHT22;31474;45.332;10.230;2023-01-15T10:56:46;7.50;99.90
45765;DHT22;31474;45.332;10.230;2023-01-15T10:59:15;7.50;99.90
45765;DHT22;31474;45.332;10.230;2023-01-15T11:01:42;7.50;99.90
45765;DHT22;31474;45.332;10.230;2023-01-15T11:04:10;7.50;99.90
45765;DHT22;31474;45.332;10.230;2023-01-15T11:06:37;7.60;99.90
45765;DHT22;31474;45.332;10.230;2023-01-15T11:09:03;7.70;99.90
45765;DHT22;31474;45.332;10.230;2023-01-15T11:11:34;7.70;99.90
45765;DHT22;31474;45.332;10.230;2023-01-15T11:14:40;7.80;99.90
45765;DHT22;31474;45.332;10.230;2023-01-15T11:17:41;7.80;99.90
45765;DHT22;31474;45.332;10.230;2023-01-15T11:20:35;7.80;99.90
45765;DHT22;31474;45.332;10.230;2023-01-15T11:25:32;7.90;99.90
45765;DHT22;31474;45.332;10.230;2023-01-15T11:28:02;7.90;99.90
45765;DHT22;31474;45.332;10.230;2023-01-15T11:30:33;7.90;99.90
45765;DHT22;31474;45.332;10.230;2023-01-15T11:33:02;7.90;99.90
45765;DHT22;31474;45.332;10.230;2023-01-15T11:35:29;7.90;99.90
45765;DHT22;31474;45.332;10.230;2023-01-15T11:40:27;7.80;99.90
45765;DHT22;31474;45.332;10.230;2023-01-15T11:42:53;7.90;99.90
45765;DHT22;31474;45.332;10.230;2023-01-15T11:45:51;7.90;99.90
45765;DHT22;31474;45.332;10.230;2023-01-15T11:48:44;7.90;99.90
45765;DHT22;31474;45.332;10.230;2023-01-15T11:51:31;7.80;99.90
45765;DHT22;31474;45.332;10.230;2023-01-15T11:54:03;7.80;99.90
45765;DHT22;31474;45.332;10.230;2023-01-15T11:56:30;7.80;99.90
45765;DHT22;31474;45.332;10.230;2023-01-15T11:59:00;7.80;99.90
45765;DHT22;31474;45.332;10.230;2023-01-15T12:01:32;7.80;99.90
45765;DHT22;31474;45.332;10.230;2023-01-15T12:04:02;7.80;99.90
45765;DHT22;31474;45.332;10.230;2023-01-15T12:06:29;7.80;99.90
45765;DHT22;31474;45.332;10.230;2023-01-15T12:14:56;7.90;99.90
45765;DHT22;31474;45.332;10.230;2023-01-15T12:17:28;7.90;99.90
45765;DHT22;31474;45.332;10.230;2023-01-15T12:26:17;8.00;99.90
45765;DHT22;31474;45.332;10.230;2023-01-15T12:31:27;7.90;99.90
45765;DHT22;31474;45.332;10.230;2023-01-15T12:33:58;8.00;99.90
45765;DHT22;31474;45.332;10.230;2023-01-15T12:39:21;8.00;99.90
45765;DHT22;31474;45.332;10.230;2023-01-15T12:41:55;8.00;99.90
45765;DHT22;31474;45.332;10.230;2023-01-15T12:55:40;7.90;99.90
45765;DHT22;31474;45.332;10.230;2023-01-15T13:01:01;8.00;99.90
45765;DHT22;31474;45.332;10.230;2023-01-15T13:03:57;8.00;99.90
45765;DHT22;31474;45.332;10.230;2023-01-15T13:06:25;7.90;99.90
45765;DHT22;31474;45.332;10.230;2023-01-15T13:09:13;7.90;99.90
45765;DHT22;31474;45.332;10.230;2023-01-15T13:11:42;7.90;99.90
45765;DHT22;31474;45.332;10.230;2023-01-15T13:14:17;7.80;99.90
45765;DHT22;31474;45.332;10.230;2023-01-15T13:22:18;7.80;99.90
45765;DHT22;31474;45.332;10.230;2023-01-15T13:27:23;7.80;99.90
45765;DHT22;31474;45.332;10.230;2023-01-15T13:32:46;7.90;99.90
45765;DHT22;31474;45.332;10.230;2023-01-15T13:35:42;7.90;99.90
45765;DHT22;31474;45.332;10.230;2023-01-15T13:38:24;8.00;99.90
45765;DHT22;31474;45.332;10.230;2023-01-15T13:40:53;8.00;99.90
45765;DHT22;31474;45.332;10.230;2023-01-15T13:43:31;8.00;99.90
45765;DHT22;31474;45.332;10.230;2023-01-15T13:45:59;8.10;99.90
45765;DHT22;31474;45.332;10.230;2023-01-15T13:48:35;8.00;99.90
45765;DHT22;31474;45.332;10.230;2023-01-15T13:51:29;8.00;99.90
45765;DHT22;31474;45.332;10.230;2023-01-15T13:53:57;8.10;99.90
45765;DHT22;31474;45.332;10.230;2023-01-15T13:56:30;8.10;99.90
45765;DHT22;31474;45.332;10.230;2023-01-15T13:59:01;8.00;99.90
45765;DHT22;31474;45.332;10.230;2023-01-15T14:01:34;8.10;99.90
45765;DHT22;31474;45.332;10.230;2023-01-15T14:06:37;8.10;99.90
45765;DHT22;31474;45.332;10.230;2023-01-15T14:09:04;8.10;99.90
45765;DHT22;31474;45.332;10.230;2023-01-15T14:31:19;8.00;99.90
45765;DHT22;31474;45.332;10.230;2023-01-15T14:34:10;8.00;99.90
45765;DHT22;31474;45.332;10.230;2023-01-15T14:36:44;8.00;99.90
45765;DHT22;31474;45.332;10.230;2023-01-15T14:39:32;8.00;99.90
45765;DHT22;31474;45.332;10.230;2023-01-15T14:42:02;8.00;99.90
45765;DHT22;31474;45.332;10.230;2023-01-15T14:44:55;8.10;99.90
45765;DHT22;31474;45.332;10.230;2023-01-15T14:47:29;8.00;99.90
45765;DHT22;31474;45.332;10.230;2023-01-15T14:50:21;8.00;99.90
45765;DHT22;31474;45.332;10.230;2023-01-15T14:55:37;8.00;99.90
45765;DHT22;31474;45.332;10.230;2023-01-15T14:58:13;8.00;99.90
45765;DHT22;31474;45.332;10.230;2023-01-15T15:00:43;8.00;99.90
45765;DHT22;31474;45.332;10.230;2023-01-15T15:03:18;8.10;99.90
45765;DHT22;31474;45.332;10.230;2023-01-15T15:05:46;8.10;99.90
45765;DHT22;31474;45.332;10.230;2023-01-15T15:08:14;8.10;99.90
45765;DHT22;31474;45.332;10.230;2023-01-15T15:10:42;8.10;99.90
45765;DHT22;31474;45.332;10.230;2023-01-15T15:13:30;8.10;99.90
45765;DHT22;31474;45.332;10.230;2023-01-15T15:18:56;8.10;99.90
45765;DHT22;31474;45.332;10.230;2023-01-15T15:21:30;8.20;99.90
45765;DHT22;31474;45.332;10.230;2023-01-15T15:26:37;8.20;99.90
45765;DHT22;31474;45.332;10.230;2023-01-15T15:29:14;8.20;99.90
45765;DHT22;31474;45.332;10.230;2023-01-15T15:31:49;8.20;99.90
45765;DHT22;31474;45.332;10.230;2023-01-15T15:34:39;8.20;99.90
45765;DHT22;31474;45.332;10.230;2023-01-15T15:37:22;8.20;99.90
45765;DHT22;31474;45.332;10.230;2023-01-15T15:39:54;8.30;99.90
45765;DHT22;31474;45.332;10.230;2023-01-15T15:42:33;8.30;99.90
45765;DHT22;31474;45.332;10.230;2023-01-15T15:45:21;8.20;99.90
45765;DHT22;31474;45.332;10.230;2023-01-15T15:48:32;8.20;99.90
45765;DHT22;31474;45.332;10.230;2023-01-15T15:57:01;8.20;99.90
45765;DHT22;31474;45.332;10.230;2023-01-15T16:04:55;8.10;99.90
45765;DHT22;31474;45.332;10.230;2023-01-15T16:07:30;8.10;99.90
45765;DHT22;31474;45.332;10.230;2023-01-15T16:10:17;8.10;99.90
45765;DHT22;31474;45.332;10.230;2023-01-15T16:12:45;8.10;99.90
45765;DHT22;31474;45.332;10.230;2023-01-15T16:15:31;8.10;99.90
45765;DHT22;31474;45.332;10.230;2023-01-15T16:17:59;8.10;99.90
45765;DHT22;31474;45.332;10.230;2023-01-15T16:20:26;8.00;99.90
45765;DHT22;31474;45.332;10.230;2023-01-15T16:23:00;7.90;99.90
45765;DHT22;31474;45.332;10.230;2023-01-15T16:25:36;8.00;99.90
45765;DHT22;31474;45.332;10.230;2023-01-15T16:28:04;8.00;99.90
45765;DHT22;31474;45.332;10.230;2023-01-15T16:30:31;8.00;99.90
45765;DHT22;31474;45.332;10.230;2023-01-15T16:33:03;8.00;99.90
45765;DHT22;31474;45.332;10.230;2023-01-15T16:35:30;8.00;99.90
45765;DHT22;31474;45.332;10.230;2023-01-15T16:37:59;8.00;99.90
45765;DHT22;31474;45.332;10.230;2023-01-15T16:40:33;8.00;99.90
45765;DHT22;31474;45.332;10.230;2023-01-15T16:43:09;8.00;99.90
45765;DHT22;31474;45.332;10.230;2023-01-15T16:45:41;8.10;99.90
45765;DHT22;31474;45.332;10.230;2023-01-15T16:50:58;8.10;99.90
45765;DHT22;31474;45.332;10.230;2023-01-15T16:53:44;8.10;99.90
45765;DHT22;31474;45.332;10.230;2023-01-15T16:56:48;8.10;99.90
45765;DHT22;31474;45.332;10.230;2023-01-15T16:59:18;8.10;99.90
45765;DHT22;31474;45.332;10.230;2023-01-15T17:02:13;8.10;99.90
45765;DHT22;31474;45.332;10.230;2023-01-15T17:04:42;8.10;99.90
45765;DHT22;31474;45.332;10.230;2023-01-15T17:07:18;8.10;99.90
45765;DHT22;31474;45.332;10.230;2023-01-15T17:09:49;8.10;99.90
45765;DHT22;31474;45.332;10.230;2023-01-15T17:12:23;8.10;99.90
45765;DHT22;31474;45.332;10.230;2023-01-15T17:14:49;8.10;99.90
45765;DHT22;31474;45.332;10.230;2023-01-15T17:19:47;8.10;99.90
45765;DHT22;31474;45.332;10.230;2023-01-15T17:22:35;8.10;99.90
45765;DHT22;31474;45.332;10.230;2023-01-15T17:25:00;8.10;99.90
45765;DHT22;31474;45.332;10.230;2023-01-15T17:27:28;8.10;99.90
45765;DHT22;31474;45.332;10.230;2023-01-15T17:29:54;8.10;99.90
45765;DHT22;31474;45.332;10.230;2023-01-15T17:32:27;8.10;99.90
45765;DHT22;31474;45.332;10.230;2023-01-15T17:34:54;8.10;99.90
45765;DHT22;31474;45.332;10.230;2023-01-15T17:37:20;8.10;99.90
45765;DHT22;31474;45.332;10.230;2023-01-15T17:39:46;8.10;99.90
45765;DHT22;31474;45.332;10.230;2023-01-15T17:42:13;8.00;99.90
45765;DHT22;31474;45.332;10.230;2023-01-15T17:44:39;8.00;99.90
45765;DHT22;31474;45.332;10.230;2023-01-15T17:47:05;8.00;99.90
45765;DHT22;31474;45.332;10.230;2023-01-15T17:49:30;8.00;99.90
45765;DHT22;31474;45.332;10.230;2023-01-15T17:51:57;8.00;99.90
45765;DHT22;31474;45.332;10.230;2023-01-15T17:54:22;8.00;99.90
45765;DHT22;31474;45.332;10.230;2023-01-15T17:57:14;8.00;99.90
45765;DHT22;31474;45.332;10.230;2023-01-15T17:59:58;8.00;99.90
45765;DHT22;31474;45.332;10.230;2023-01-15T18:02:42;8.00;99.90
45765;DHT22;31474;45.332;10.230;2023-01-15T18:05:28;8.00;99.90
45765;DHT22;31474;45.332;10.230;2023-01-15T18:08:02;8.00;99.90
45765;DHT22;31474;45.332;10.230;2023-01-15T18:10:28;8.00;99.90
45765;DHT22;31474;45.332;10.230;2023-01-15T18:12:54;8.00;99.90
45765;DHT22;31474;45.332;10.230;2023-01-15T18:15:19;8.00;99.90
45765;DHT22;31474;45.332;10.230;2023-01-15T18:17:45;8.00;99.90
45765;DHT22;31474;45.332;10.230;2023-01-15T18:20:12;8.00;99.90
45765;DHT22;31474;45.332;10.230;2023-01-15T18:22:37;8.00;99.90
45765;DHT22;31474;45.332;10.230;2023-01-15T18:25:04;8.10;99.90
45765;DHT22;31474;45.332;10.230;2023-01-15T18:27:30;8.10;99.90